createdAt,value
2022-08-30T00:01:56.604Z,149871.31
2022-08-30T00:07:04.050Z,149837.72
2022-08-30T00:12:11.063Z,149801.56
2022-08-30T00:17:15.636Z,149827.38
2022-08-30T00:22:21.401Z,149820.91
2022-08-30T00:27:25.727Z,149804.16
2022-08-30T00:32:31.285Z,149765.38
2022-08-30T00:37:37.511Z,149736.91
2022-08-30T00:42:41.995Z,149770.56
2022-08-30T00:47:46.852Z,149770.56
2022-08-30T00:52:55.950Z,149736.91
2022-08-30T00:58:05.117Z,149745.97
2022-08-30T01:03:10.202Z,149766.66
2022-08-30T01:08:16.934Z,149757.59
2022-08-30T01:13:23.402Z,149725.31
2022-08-30T01:18:28.297Z,149705.91
2022-08-30T01:23:36.646Z,149694.28
2022-08-30T01:28:44.902Z,149713.69
2022-08-30T01:33:49.417Z,149674.91
2022-08-30T01:38:57.501Z,149664.56
2022-08-30T01:44:05.532Z,149633.56
2022-08-30T01:49:13.191Z,149631.00
2022-08-30T01:54:19.513Z,149600.00
2022-08-30T01:59:24.335Z,149567.72
2022-08-30T02:04:29.340Z,149579.34
2022-08-30T02:09:35.235Z,149576.78
2022-08-30T02:14:40.692Z,149602.56
2022-08-30T02:19:45.340Z,149600.00
2022-08-30T02:24:51.080Z,149580.63
2022-08-30T02:29:55.658Z,149587.09
2022-08-30T02:35:00.392Z,149578.06
2022-08-30T02:40:08.633Z,149587.09
2022-08-30T02:45:13.637Z,149589.69
2022-08-30T02:50:19.887Z,149571.59
2022-08-30T02:55:26.218Z,149561.31
2022-08-30T03:00:31.045Z,149572.91
2022-08-30T03:05:39.609Z,149584.53
2022-08-30T03:10:46.433Z,149567.72
2022-08-30T03:15:50.852Z,149544.50
2022-08-30T03:20:55.361Z,149549.63
2022-08-30T03:26:01.491Z,149536.72
2022-08-30T03:31:07.129Z,149529.03
2022-08-30T03:36:13.061Z,149507.09
2022-08-30T03:41:19.897Z,149503.19
2022-08-30T03:46:24.726Z,149496.75
2022-08-30T03:51:34.875Z,149468.34
2022-08-30T03:56:42.019Z,149456.72
2022-08-30T04:01:48.485Z,149482.50
2022-08-30T04:06:53.987Z,149512.22
2022-08-30T04:12:00.700Z,149535.44
2022-08-30T04:17:05.850Z,149482.50
2022-08-30T04:22:10.422Z,149408.91
2022-08-30T04:27:20.463Z,149429.53
2022-08-30T04:32:25.315Z,149485.09
2022-08-30T04:37:30.118Z,149472.19
2022-08-30T04:42:37.358Z,149463.16
2022-08-30T04:47:42.327Z,149473.47
2022-08-30T04:52:47.954Z,149504.47
2022-08-30T04:57:54.956Z,149569.00
2022-08-30T05:02:59.209Z,149601.28
2022-08-30T05:08:04.219Z,149605.19
2022-08-30T05:13:11.613Z,149634.84
2022-08-30T05:18:16.657Z,149690.38
2022-08-30T05:23:20.985Z,149758.94
2022-08-30T05:28:27.015Z,149815.75
2022-08-30T05:33:32.151Z,149877.81
2022-08-30T05:38:44.908Z,149998.00
2022-08-30T05:43:53.943Z,150148.06
2022-08-30T05:48:58.755Z,150238.59
2022-08-30T05:54:04.002Z,150260.56
2022-08-30T05:59:10.619Z,150427.53
2022-08-30T06:04:15.540Z,150564.78
2022-08-30T06:09:19.959Z,150627.00
2022-08-30T06:14:25.916Z,150700.81
2022-08-30T06:19:30.783Z,150808.34
2022-08-30T06:24:56.494Z,150875.81
2022-08-30T06:30:03.424Z,150899.16
2022-08-30T06:35:10.443Z,150808.34
2022-08-30T06:40:18.498Z,150895.22
2022-08-30T06:45:24.843Z,151032.66
2022-08-30T06:50:30.238Z,151314.22
2022-08-30T06:55:35.140Z,151581.66
2022-08-30T07:00:42.110Z,151883.09
2022-08-30T07:05:46.991Z,152192.59
2022-08-30T07:10:52.241Z,152057.34
2022-08-30T07:15:58.319Z,152544.06
2022-08-30T07:21:10.046Z,152527.13
2022-08-30T07:26:17.543Z,152475.06
2022-08-30T07:31:23.870Z,152017.03
2022-08-30T07:36:28.159Z,151620.63
2022-08-30T07:41:36.853Z,152564.88
2022-08-30T07:46:43.446Z,153165.66
2022-08-30T07:51:49.152Z,152960.97
2022-08-30T07:56:56.251Z,152755.06
2022-08-30T08:02:02.373Z,152860.59
2022-08-30T08:07:07.041Z,152787.63
2022-08-30T08:12:11.941Z,152205.66
2022-08-30T08:17:18.333Z,152027.41
2022-08-30T08:22:22.632Z,153041.78
2022-08-30T08:27:27.222Z,152566.22
2022-08-30T08:32:33.091Z,152075.56
2022-08-30T08:37:38.372Z,152492.00
2022-08-30T08:42:55.751Z,152781.09
2022-08-30T08:48:06.552Z,152538.84
2022-08-30T08:53:45.402Z,152382.63
2022-08-30T08:58:53.307Z,152125.00
2022-08-30T09:04:03.152Z,151942.91
2022-08-30T09:09:07.473Z,152312.34
2022-08-30T09:14:17.891Z,152177.03
2022-08-30T09:19:40.452Z,152088.59
2022-08-30T09:24:47.384Z,152351.41
2022-08-30T09:29:58.122Z,152274.63
2022-08-30T09:35:06.826Z,152337.09
2022-08-30T09:40:23.129Z,152636.53
2022-08-30T09:45:34.749Z,152460.75
2022-08-30T09:50:41.067Z,152304.56
2022-08-30T09:56:01.003Z,152366.97
2022-08-30T10:01:14.150Z,152348.81
2022-08-30T10:06:34.224Z,152447.69
2022-08-30T10:11:53.535Z,152538.84
2022-08-30T10:17:10.190Z,152462.06
2022-08-30T10:22:25.795Z,152743.34
2022-08-30T10:27:36.164Z,152936.16
2022-08-30T10:32:47.554Z,152963.56
2022-08-30T10:37:58.207Z,152550.56
2022-08-30T10:43:09.985Z,152184.84
2022-08-30T10:48:22.491Z,152381.34
2022-08-30T10:53:34.019Z,152361.81
2022-08-30T10:58:40.932Z,152538.84
2022-08-30T11:04:21.757Z,152590.94
2022-08-30T11:09:53.380Z,152283.75
2022-08-30T11:14:58.419Z,152368.28
2022-08-30T11:20:22.489Z,152630.00
2022-08-30T11:25:53.567Z,152821.53
2022-08-30T11:31:09.858Z,152953.13
2022-08-30T11:37:04.388Z,152689.94
2022-08-30T11:42:30.080Z,152619.53
2022-08-30T11:47:43.721Z,152770.66
2022-08-30T11:53:00.952Z,153004.03
2022-08-30T11:58:28.107Z,153306.56
2022-08-30T12:03:35.460Z,153580.56
2022-08-30T12:08:57.927Z,153454.03
2022-08-30T12:14:09.418Z,153245.25
2022-08-30T12:19:19.195Z,153452.72
2022-08-30T12:24:28.189Z,153356.16
2022-08-30T12:29:34.626Z,152868.41
2022-08-30T12:34:53.211Z,152805.88
2022-08-30T12:40:06.441Z,152871.00
2022-08-30T12:45:16.055Z,152730.31
2022-08-30T12:50:24.628Z,152477.66
2022-08-30T12:55:31.946Z,152627.41
2022-08-30T13:00:40.331Z,152936.16
2022-08-30T13:05:52.737Z,153011.81
2022-08-30T13:11:07.380Z,153164.38
2022-08-30T13:16:29.260Z,153296.13
2022-08-30T13:21:36.150Z,153430.50
2022-08-30T13:26:41.460Z,153494.44
2022-08-30T13:31:48.013Z,153490.53
2022-08-30T13:36:57.667Z,153719.00
2022-08-30T13:47:37.013Z,154207.69
2022-08-30T13:52:42.515Z,154385.56
2022-08-30T13:57:55.516Z,154732.28
2022-08-30T14:03:03.206Z,154801.69
2022-08-30T14:08:44.340Z,154915.56
2022-08-30T14:13:34.315Z,154670.78
2022-08-30T14:18:40.927Z,155164.44
2022-08-30T14:23:45.285Z,154860.59
2022-08-30T14:28:51.822Z,154312.28
2022-08-30T14:33:58.875Z,153313.09
2022-08-30T14:39:08.153Z,153555.78
2022-08-30T14:44:14.270Z,154133.19
2022-08-30T14:49:21.645Z,154307.03
2022-08-30T14:54:30.275Z,154535.97
2022-08-30T14:59:35.376Z,154277.00
2022-08-30T15:04:42.066Z,153878.31
2022-08-30T15:09:47.374Z,153206.09
2022-08-30T15:14:51.835Z,153007.91
2022-08-30T15:19:58.843Z,152877.56
2022-08-30T15:25:05.515Z,152686.03
2022-08-30T15:30:12.254Z,152646.97
2022-08-30T15:35:22.827Z,152464.63
2022-08-30T15:40:28.469Z,152436.00
2022-08-30T15:45:33.185Z,152307.16
2022-08-30T15:50:39.052Z,152139.28
2022-08-30T15:55:45.083Z,152031.34
2022-08-30T16:00:50.018Z,151997.50
2022-08-30T16:05:57.916Z,151966.34
2022-08-30T16:11:02.748Z,151984.53
2022-08-30T16:16:09.374Z,151866.19
2022-08-30T16:21:20.672Z,151801.28
2022-08-30T16:26:25.970Z,151742.78
2022-08-30T16:31:32.249Z,151671.31
2022-08-30T16:36:39.910Z,151594.69
2022-08-30T16:41:45.887Z,151563.50
2022-08-30T16:46:53.142Z,151524.53
2022-08-30T16:52:00.323Z,151482.94
2022-08-30T16:57:04.992Z,151475.19
2022-08-30T17:02:09.956Z,151489.44
2022-08-30T17:07:20.985Z,151477.75
2022-08-30T17:12:27.970Z,151436.22
2022-08-30T17:17:32.357Z,151407.66
2022-08-30T17:22:39.139Z,151373.91
2022-08-30T17:27:44.679Z,151312.94
2022-08-30T17:32:49.218Z,151293.47
2022-08-30T17:37:55.950Z,151246.72
2022-08-30T17:43:00.416Z,151202.63
2022-08-30T17:48:07.370Z,151148.16
2022-08-30T17:53:13.673Z,151094.97
2022-08-30T17:58:18.573Z,151075.50
2022-08-30T18:03:26.828Z,151050.81
2022-08-30T18:08:33.690Z,151023.56
2022-08-30T18:13:39.248Z,151002.81
2022-08-30T18:18:44.670Z,150989.88
2022-08-30T18:23:54.336Z,150934.13
2022-08-30T18:29:01.595Z,150938.00
2022-08-30T18:34:12.433Z,150915.97
2022-08-30T18:39:19.429Z,150905.59
2022-08-30T18:44:28.887Z,150886.19
2022-08-30T18:49:36.478Z,150821.34
2022-08-30T18:54:52.433Z,150818.72
2022-08-30T18:59:57.866Z,150785.03
2022-08-30T19:05:02.778Z,150765.59
2022-08-30T19:10:12.354Z,150724.16
2022-08-30T19:15:17.247Z,150726.75
2022-08-30T19:20:23.866Z,150709.88
2022-08-30T19:25:30.887Z,150689.16
2022-08-30T19:30:35.661Z,150655.47
2022-08-30T19:35:39.947Z,150649.03
2022-08-30T19:40:45.813Z,150608.88
2022-08-30T19:45:56.306Z,150625.72
2022-08-30T19:51:01.776Z,150621.81
2022-08-30T19:56:07.931Z,150559.59
2022-08-30T20:01:13.787Z,150533.72
2022-08-30T20:06:37.976Z,150502.63
2022-08-30T20:11:52.539Z,150443.09
2022-08-30T20:17:02.318Z,150445.69
2022-08-30T20:22:08.430Z,150459.91
2022-08-30T20:27:15.425Z,150395.19
2022-08-30T20:32:20.995Z,150395.19
2022-08-30T20:37:27.942Z,150380.97
2022-08-30T20:42:34.326Z,150362.81
2022-08-30T20:47:40.434Z,150342.13
2022-08-30T20:52:46.747Z,150321.41
2022-08-30T20:57:52.715Z,150317.50
2022-08-30T21:02:57.387Z,150299.41
2022-08-30T21:08:06.885Z,150291.63
2022-08-30T21:13:17.510Z,150272.22
2022-08-30T21:18:22.027Z,150264.44
2022-08-30T21:23:27.253Z,150243.75
2022-08-30T21:28:33.468Z,150239.88
2022-08-30T21:33:39.430Z,150215.31
2022-08-30T21:38:44.039Z,150211.41
2022-08-30T21:43:51.951Z,150190.75
2022-08-30T21:49:02.130Z,150155.78
2022-08-30T21:54:10.321Z,150119.59
2022-08-30T21:59:16.788Z,150106.66
2022-08-30T22:04:26.154Z,150085.97
2022-08-30T22:09:31.631Z,150067.84
2022-08-30T22:14:37.643Z,150031.63
2022-08-30T22:19:42.530Z,150053.66
2022-08-30T22:24:48.257Z,150052.34
2022-08-30T22:29:54.348Z,150044.53
2022-08-30T22:34:58.827Z,150041.97
2022-08-30T22:40:03.505Z,150029.03
2022-08-30T22:45:12.189Z,149985.09
2022-08-30T22:50:16.623Z,149955.34
2022-08-30T22:55:21.120Z,149952.78
2022-08-30T23:00:29.498Z,149955.34
2022-08-30T23:05:35.101Z,149959.22
2022-08-30T23:10:39.441Z,149934.66
2022-08-30T23:15:45.880Z,149923.03
2022-08-30T23:20:50.455Z,149912.69
2022-08-30T23:26:12.243Z,149908.84
2022-08-30T23:31:36.590Z,149893.28
2022-08-30T23:36:58.431Z,149884.22
2022-08-30T23:42:20.094Z,149886.84
2022-08-30T23:47:45.682Z,149870.03
2022-08-30T23:53:07.797Z,149866.19
2022-08-30T23:58:29.809Z,149824.81
